Time;durP1;ratioP1;P1;durP2;ratioP2;P2;SDS_P1;SDS_P2;PMS_P1;PMS_P2;Temp;Humidity;BMP_temperature;BMP_pressure;BME280_temperature;BME280_humidity;BME280_pressure;Samples;Min_cycle;Max_cycle;Signal;HPM_P1;HPM_P2
2024/01/27 00:01:14;;;;;;;13.25;2.88;;;;;;;8.85;67.13;103539.00;5089196;28;20030;-45
2024/01/27 00:03:39;;;;;;;12.65;3.55;;;;;;;8.87;66.21;103537.41;5090183;28;20048;-48
2024/01/27 00:06:04;;;;;;;21.80;4.05;;;;;;;8.74;67.59;103537.44;5089317;28;20486;-51
2024/01/27 00:08:30;;;;;;;14.32;3.10;;;;;;;8.83;67.07;103538.03;5089540;28;20024;-46
2024/01/27 00:10:55;;;;;;;16.52;2.75;;;;;;;8.81;66.66;103536.13;5088949;28;20094;-47
2024/01/27 00:13:20;;;;;;;15.15;3.28;;;;;;;8.77;66.80;103542.84;5088372;28;20078;-47
2024/01/27 00:15:46;;;;;;;13.25;3.20;;;;;;;8.77;66.58;103535.06;5089709;28;20442;-46
2024/01/27 00:18:11;;;;;;;19.08;3.17;;;;;;;8.72;66.47;103533.84;5089489;28;20051;-47
2024/01/27 00:20:37;;;;;;;22.80;3.17;;;;;;;8.75;67.08;103535.75;5090227;28;20040;-46
2024/01/27 00:23:03;;;;;;;13.30;3.10;;;;;;;8.74;66.35;103541.75;5089596;28;20486;-51
2024/01/27 00:25:29;;;;;;;22.98;3.15;;;;;;;8.69;67.13;103538.84;5090067;28;20047;-44
2024/01/27 00:27:54;;;;;;;20.95;3.10;;;;;;;8.60;67.79;103537.38;5088895;28;20032;-47
2024/01/27 00:30:19;;;;;;;17.77;3.05;;;;;;;8.63;68.05;103529.78;5089503;28;20043;-48
2024/01/27 00:32:45;;;;;;;20.08;3.15;;;;;;;8.61;67.54;103526.16;5089787;28;20094;-45
2024/01/27 00:35:14;;;;;;;17.40;3.60;;;;;;;8.55;67.05;103530.19;5089159;28;20467;-46
2024/01/27 00:37:39;;;;;;;17.08;3.08;;;;;;;8.48;66.89;103537.47;5087681;28;20032;-48
2024/01/27 00:40:08;;;;;;;12.32;3.40;;;;;;;8.38;67.11;103545.50;5088278;28;20031;-48
2024/01/27 00:42:33;;;;;;;19.10;3.67;;;;;;;8.40;67.63;103550.00;5089950;28;20640;-44
2024/01/27 00:44:58;;;;;;;16.63;3.00;;;;;;;8.37;67.50;103539.41;5090960;28;20036;-45
2024/01/27 00:47:24;;;;;;;10.45;2.83;;;;;;;8.35;67.14;103537.50;5093247;28;20119;-47
2024/01/27 00:49:49;;;;;;;16.60;3.13;;;;;;;8.28;66.89;103548.28;5094212;28;20044;-46
2024/01/27 00:52:15;;;;;;;15.63;3.60;;;;;;;8.25;67.42;103555.84;5091801;28;20123;-45
2024/01/27 00:54:40;;;;;;;18.92;4.00;;;;;;;8.21;67.79;103546.97;5092778;28;20051;-46
2024/01/27 00:57:05;;;;;;;15.63;3.42;;;;;;;8.03;68.03;103557.06;5093530;28;20498;-44
2024/01/27 00:59:30;;;;;;;23.52;3.95;;;;;;;7.99;69.47;103547.25;5094184;28;20084;-44
2024/01/27 01:01:56;;;;;;;20.77;4.38;;;;;;;7.98;70.37;103552.34;5093335;28;20120;-46
2024/01/27 01:04:21;;;;;;;25.75;3.42;;;;;;;7.92;70.97;103552.84;5093503;28;20030;-45
2024/01/27 01:06:47;;;;;;;15.43;3.53;;;;;;;8.15;69.63;103549.16;5093461;28;20101;-46
2024/01/27 01:09:12;;;;;;;14.05;2.92;;;;;;;8.19;69.85;103551.16;5093962;28;20059;-45
2024/01/27 01:11:37;;;;;;;19.90;3.33;;;;;;;8.19;69.71;103543.38;5101274;28;20043;-46
2024/01/27 01:14:03;;;;;;;16.67;3.00;;;;;;;8.19;69.02;103547.66;5095237;28;20036;-46
2024/01/27 01:16:28;;;;;;;15.50;2.97;;;;;;;8.14;70.07;103547.38;5092019;28;20032;-47
2024/01/27 01:18:53;;;;;;;16.02;2.70;;;;;;;8.19;69.57;103545.97;5090966;28;20490;-47
2024/01/27 01:21:18;;;;;;;23.48;3.60;;;;;;;8.19;69.79;103553.75;5092211;28;20036;-46
2024/01/27 01:23:44;;;;;;;20.70;3.60;;;;;;;8.20;69.71;103555.56;5092772;28;20110;-46
2024/01/27 01:26:09;;;;;;;22.95;3.88;;;;;;;8.12;71.06;103546.34;5091375;28;20028;-44
2024/01/27 01:28:34;;;;;;;17.40;2.90;;;;;;;8.08;72.08;103545.25;5092124;28;20458;-45
2024/01/27 01:31:00;;;;;;;19.92;3.28;;;;;;;8.09;72.03;103546.16;5091526;28;20131;-47
2024/01/27 01:33:25;;;;;;;16.17;3.17;;;;;;;8.27;71.38;103555.16;5092042;28;20024;-45
2024/01/27 01:35:50;;;;;;;17.13;2.97;;;;;;;8.27;71.79;103557.78;5090547;28;20040;-45
2024/01/27 01:38:16;;;;;;;13.20;3.13;;;;;;;8.15;72.09;103551.78;5091398;28;20039;-47
2024/01/27 01:40:41;;;;;;;21.05;3.22;;;;;;;8.38;71.61;103543.78;5092132;28;20039;-46
2024/01/27 01:43:11;;;;;;;11.55;2.55;;;;;;;8.42;70.95;103548.38;5091794;28;20537;-45
2024/01/27 01:45:36;;;;;;;15.32;2.70;;;;;;;8.37;71.06;103548.88;5091631;28;20043;-45
2024/01/27 01:48:02;;;;;;;16.63;3.03;;;;;;;8.32;70.95;103548.59;5090700;28;20429;-47
2024/01/27 01:50:27;;;;;;;17.08;3.00;;;;;;;8.36;70.54;103548.00;5091247;28;20512;-46
2024/01/27 01:52:53;;;;;;;20.05;3.17;;;;;;;8.38;69.76;103546.41;5090820;28;20036;-45
2024/01/27 01:55:19;;;;;;;16.45;2.67;;;;;;;8.34;69.56;103544.41;5091052;28;20118;-47
2024/01/27 01:57:44;;;;;;;15.07;3.13;;;;;;;8.27;70.07;103549.06;5091028;28;20036;-44
2024/01/27 02:00:11;;;;;;;18.60;3.05;;;;;;;8.25;69.44;103555.84;5090910;28;20058;-45
2024/01/27 02:02:36;;;;;;;11.88;2.80;;;;;;;8.14;69.91;103558.66;5091275;28;20059;-44
2024/01/27 02:05:01;;;;;;;19.55;3.42;;;;;;;8.14;70.77;103555.16;5089658;28;20109;-45
2024/01/27 02:07:27;;;;;;;19.92;3.00;;;;;;;8.16;71.02;103558.78;5089651;28;20127;-43
2024/01/27 02:09:52;;;;;;;22.30;2.83;;;;;;;8.17;70.22;103565.78;5089319;28;20040;-43
2024/01/27 02:12:18;;;;;;;18.45;3.17;;;;;;;8.13;69.40;103564.66;5089782;28;20504;-49
2024/01/27 02:14:43;;;;;;;22.35;3.00;;;;;;;8.02;69.88;103564.75;5091141;28;20042;-44
2024/01/27 02:17:08;;;;;;;17.80;3.20;;;;;;;7.98;70.28;103571.44;5090049;28;20517;-45
2024/01/27 02:19:34;;;;;;;16.45;2.75;;;;;;;8.02;69.76;103562.16;5091008;28;20444;-46
2024/01/27 02:21:59;;;;;;;18.45;2.88;;;;;;;8.02;69.94;103565.66;5090374;28;20064;-46
2024/01/27 02:24:24;;;;;;;10.63;2.60;;;;;;;7.94;69.80;103565.91;5092381;28;20039;-44
2024/01/27 02:26:50;;;;;;;17.67;3.17;;;;;;;7.87;70.14;103566.34;5093759;28;20032;-50
2024/01/27 02:29:15;;;;;;;17.00;2.90;;;;;;;7.88;69.95;103562.91;5090948;28;20035;-45
2024/01/27 02:31:41;;;;;;;13.88;3.25;;;;;;;7.81;70.10;103563.31;5091459;28;20056;-46
2024/01/27 02:34:06;;;;;;;12.50;2.70;;;;;;;7.80;70.42;103580.59;5091217;28;20501;-46
2024/01/27 02:36:31;;;;;;;15.40;2.60;;;;;;;7.82;70.40;103575.47;5092022;28;20038;-44
2024/01/27 02:38:57;;;;;;;14.27;2.90;;;;;;;7.82;71.35;103572.88;5091987;28;20410;-45
2024/01/27 02:41:22;;;;;;;15.85;3.03;;;;;;;7.88;70.35;103563.81;5090332;28;20032;-44
2024/01/27 02:43:47;;;;;;;16.15;2.42;;;;;;;7.80;71.72;103552.03;5091522;28;20036;-45
2024/01/27 02:46:15;;;;;;;18.60;3.05;;;;;;;7.88;71.53;103555.13;5090270;28;20062;-46
2024/01/27 02:48:42;;;;;;;15.25;2.60;;;;;;;7.91;70.84;103564.03;5090796;28;20084;-44
2024/01/27 02:51:08;;;;;;;13.70;2.75;;;;;;;7.74;71.20;103564.59;5090134;28;20525;-48
2024/01/27 02:53:33;;;;;;;16.45;2.63;;;;;;;7.71;71.36;103565.28;5090693;28;20028;-49
2024/01/27 02:55:58;;;;;;;13.48;2.75;;;;;;;7.78;71.33;103564.00;5090062;28;20229;-45
2024/01/27 02:58:23;;;;;;;15.45;2.80;;;;;;;7.86;70.77;103560.25;5090425;28;20118;-44
2024/01/27 03:00:49;;;;;;;15.85;2.40;;;;;;;7.84;70.67;103563.50;5090317;28;20024;-45
2024/01/27 03:03:15;;;;;;;14.73;2.70;;;;;;;7.81;71.17;103578.91;5090138;28;20486;-48
2024/01/27 03:05:40;;;;;;;13.25;2.58;;;;;;;7.85;70.42;103575.72;5090706;28;20036;-47
2024/01/27 03:08:06;;;;;;;18.30;3.00;;;;;;;7.84;70.90;103576.50;5089418;28;20050;-45
2024/01/27 03:10:32;;;;;;;16.30;2.80;;;;;;;7.62;71.84;103590.59;5092629;28;20040;-45
2024/01/27 03:12:57;;;;;;;22.65;2.80;;;;;;;7.73;71.41;103581.88;5092314;28;20119;-45
2024/01/27 03:15:22;;;;;;;15.07;2.42;;;;;;;7.70;72.45;103575.56;5091154;28;20032;-48
2024/01/27 03:17:48;;;;;;;19.77;2.75;;;;;;;7.69;72.65;103577.25;5090144;28;20075;-47
2024/01/27 03:20:13;;;;;;;19.83;3.22;;;;;;;7.72;72.81;103574.88;5088314;28;20028;-47
2024/01/27 03:22:40;;;;;;;18.92;3.10;;;;;;;7.65;73.34;103575.25;5090142;28;20040;-47
2024/01/27 03:25:06;;;;;;;18.75;3.15;;;;;;;7.88;72.86;103576.81;5089679;28;20032;-45
2024/01/27 03:27:32;;;;;;;14.70;3.42;;;;;;;7.98;72.65;103570.53;5089560;28;20032;-45
2024/01/27 03:30:01;;;;;;;17.45;3.42;;;;;;;8.01;71.75;103576.84;5088236;28;20043;-44
2024/01/27 03:32:27;;;;;;;13.63;3.15;;;;;;;7.92;71.81;103575.34;5089928;28;20104;-47
2024/01/27 03:34:52;;;;;;;18.83;3.65;;;;;;;7.94;71.77;103568.53;5089643;28;20533;-44
2024/01/27 03:37:17;;;;;;;16.33;3.63;;;;;;;7.88;71.64;103576.81;5089342;28;20044;-48
2024/01/27 03:39:43;;;;;;;16.05;3.83;;;;;;;7.91;71.51;103587.41;5089727;28;20028;-47
2024/01/27 03:42:08;;;;;;;16.25;4.28;;;;;;;7.83;71.94;103590.28;5089117;28;20040;-45
2024/01/27 03:44:33;;;;;;;20.85;4.55;;;;;;;7.74;73.74;103569.81;5089805;28;20039;-45
2024/01/27 03:46:59;;;;;;;21.90;3.97;;;;;;;7.72;73.65;103567.09;5089231;28;20064;-44
2024/01/27 03:49:24;;;;;;;21.95;4.72;;;;;;;7.69;74.06;103568.56;5089459;28;20076;-44
2024/01/27 03:51:49;;;;;;;24.95;4.97;;;;;;;7.68;74.05;103567.66;5089675;28;20166;-46
2024/01/27 03:54:15;;;;;;;23.77;4.65;;;;;;;7.93;73.13;103554.63;5089342;28;20039;-46
2024/01/27 03:56:41;;;;;;;21.65;4.82;;;;;;;7.94;72.60;103560.72;5089264;28;20093;-46
2024/01/27 03:59:09;;;;;;;20.02;4.63;;;;;;;7.90;72.05;103556.13;5089193;28;20032;-45
2024/01/27 04:01:34;;;;;;;21.77;4.80;;;;;;;7.80;72.04;103566.72;5089890;28;20039;-46
2024/01/27 04:04:00;;;;;;;20.38;4.75;;;;;;;7.74;72.03;103570.66;5089180;28;20086;-47
2024/01/27 04:06:25;;;;;;;18.70;4.45;;;;;;;7.63;72.39;103570.75;5089495;28;20071;-45
2024/01/27 04:08:50;;;;;;;18.10;4.85;;;;;;;7.72;72.63;103568.78;5090337;28;20651;-49
2024/01/27 04:11:22;;;;;;;21.30;5.40;;;;;;;7.77;72.17;103570.00;5093674;28;20456;-43
2024/01/27 04:13:49;;;;;;;20.58;5.55;;;;;;;7.74;71.59;103575.88;5091945;28;20229;-44
2024/01/27 04:16:15;;;;;;;21.10;5.00;;;;;;;7.77;71.50;103580.38;5090788;28;20574;-48
2024/01/27 04:18:42;;;;;;;19.13;5.30;;;;;;;7.58;71.55;103592.91;5091828;28;20040;-44
2024/01/27 04:21:07;;;;;;;25.70;6.25;;;;;;;7.64;71.92;103588.13;5093078;28;20055;-45
2024/01/27 04:23:33;;;;;;;22.85;6.10;;;;;;;7.57;72.10;103585.91;5094719;28;20490;-46
2024/01/27 04:25:59;;;;;;;23.73;6.60;;;;;;;7.45;73.32;103582.47;5094604;28;20131;-43
2024/01/27 04:28:24;;;;;;;21.45;6.60;;;;;;;7.53;72.86;103581.31;5096241;28;20051;-44
2024/01/27 04:30:49;;;;;;;22.73;7.07;;;;;;;7.58;72.47;103583.41;5093283;28;20115;-44
2024/01/27 04:33:14;;;;;;;25.13;7.03;;;;;;;7.57;71.93;103565.13;5092572;28;20059;-44
2024/01/27 04:35:40;;;;;;;23.15;7.28;;;;;;;7.43;72.82;103568.50;5092592;28;20032;-45
2024/01/27 04:38:08;;;;;;;26.15;7.38;;;;;;;7.37;73.13;103576.75;5092411;28;20570;-45
2024/01/27 04:40:35;;;;;;;24.65;8.40;;;;;;;7.36;72.89;103572.38;5092787;28;20054;-44
2024/01/27 04:43:01;;;;;;;26.88;8.07;;;;;;;7.31;73.17;103571.16;5092433;28;20036;-46
2024/01/27 04:45:27;;;;;;;23.73;7.97;;;;;;;7.28;73.35;103576.09;5092865;28;20035;-45
2024/01/27 04:47:53;;;;;;;23.83;8.55;;;;;;;7.20;73.79;103567.78;5092146;28;20032;-46
2024/01/27 04:50:19;;;;;;;29.38;9.02;;;;;;;7.28;74.40;103552.75;5092553;28;20039;-43
2024/01/27 04:52:45;;;;;;;22.20;8.40;;;;;;;7.36;73.40;103558.47;5092745;28;20036;-45
2024/01/27 04:55:11;;;;;;;31.67;9.50;;;;;;;7.28;74.60;103574.41;5092316;28;20089;-46
2024/01/27 04:57:36;;;;;;;23.33;9.57;;;;;;;7.43;73.39;103573.69;5092066;28;20040;-47
2024/01/27 05:00:04;;;;;;;25.20;9.45;;;;;;;7.41;73.58;103583.06;5092171;28;20032;-45
2024/01/27 05:02:29;;;;;;;30.00;10.27;;;;;;;7.17;74.55;103574.47;5092457;28;20188;-44
2024/01/27 05:04:54;;;;;;;27.48;10.75;;;;;;;7.34;74.95;103568.75;5092149;28;20122;-48
2024/01/27 05:07:20;;;;;;;30.00;10.63;;;;;;;7.35;74.08;103573.16;5091728;28;20027;-45
2024/01/27 05:09:46;;;;;;;30.52;10.45;;;;;;;7.30;74.17;103572.84;5092249;28;20407;-44
2024/01/27 05:12:11;;;;;;;27.00;11.00;;;;;;;7.38;73.93;103578.53;5091947;28;20032;-45
2024/01/27 05:14:36;;;;;;;28.23;11.02;;;;;;;7.23;74.44;103585.28;5090976;28;20047;-45
2024/01/27 05:17:02;;;;;;;28.83;11.57;;;;;;;7.38;73.69;103572.47;5091032;28;20047;-45
2024/01/27 05:19:27;;;;;;;32.05;11.38;;;;;;;7.17;74.99;103577.06;5091898;28;20028;-47
2024/01/27 05:21:52;;;;;;;26.45;10.60;;;;;;;7.41;74.26;103581.38;5091376;28;20044;-45
2024/01/27 05:24:18;;;;;;;30.42;11.18;;;;;;;7.29;73.97;103580.50;5091955;28;20060;-46
2024/01/27 05:26:43;;;;;;;29.35;10.73;;;;;;;7.40;73.47;103579.56;5091364;28;20032;-49
2024/01/27 05:29:08;;;;;;;35.20;11.32;;;;;;;7.27;73.44;103584.69;5091241;28;20715;-46
2024/01/27 05:31:34;;;;;;;26.70;10.23;;;;;;;7.30;73.22;103579.72;5091253;28;20036;-45
2024/01/27 05:33:59;;;;;;;29.85;11.10;;;;;;;7.24;73.57;103585.38;5091718;28;20028;-50
2024/01/27 05:36:26;;;;;;;30.15;11.25;;;;;;;7.16;73.80;103586.53;5091739;28;20107;-47
2024/01/27 05:38:51;;;;;;;30.27;11.70;;;;;;;7.19;73.38;103585.88;5092006;28;20042;-45
2024/01/27 05:41:16;;;;;;;25.08;10.77;;;;;;;7.17;73.34;103592.63;5091039;28;20111;-49
2024/01/27 05:43:42;;;;;;;30.20;11.32;;;;;;;7.23;73.08;103585.28;5091430;28;20035;-45
2024/01/27 05:46:09;;;;;;;34.40;11.80;;;;;;;7.15;73.25;103591.59;5090825;28;20036;-45
2024/01/27 05:48:34;;;;;;;31.42;11.32;;;;;;;7.13;73.66;103593.22;5091699;28;20020;-44
2024/01/27 05:51:00;;;;;;;34.75;11.30;;;;;;;7.15;73.63;103586.41;5090559;28;20093;-48
2024/01/27 05:53:26;;;;;;;27.67;10.98;;;;;;;7.22;73.16;103589.56;5091552;28;20101;-47
2024/01/27 05:55:52;;;;;;;31.48;11.20;;;;;;;7.15;73.08;103579.53;5091542;28;20502;-44
2024/01/27 05:58:21;;;;;;;28.25;11.38;;;;;;;7.13;73.56;103586.34;5090657;28;20032;-47
2024/01/27 06:00:46;;;;;;;35.55;11.70;;;;;;;7.07;73.76;103588.50;5091439;28;20032;-45
2024/01/27 06:03:12;;;;;;;27.50;11.20;;;;;;;7.14;73.30;103579.41;5091110;28;20036;-44
2024/01/27 06:05:37;;;;;;;28.45;11.27;;;;;;;7.07;74.00;103575.53;5091919;28;20410;-46
2024/01/27 06:08:04;;;;;;;31.05;11.45;;;;;;;7.08;73.82;103574.72;5092211;28;20127;-43
2024/01/27 06:10:31;;;;;;;29.42;11.05;;;;;;;7.16;74.09;103567.47;5091144;28;20040;-44
2024/01/27 06:12:56;;;;;;;35.08;11.73;;;;;;;7.17;74.24;103569.28;5091942;28;20028;-46
2024/01/27 06:15:21;;;;;;;31.10;12.23;;;;;;;7.24;74.14;103555.94;5091397;28;20035;-46
2024/01/27 06:17:47;;;;;;;29.15;11.63;;;;;;;7.21;73.71;103551.44;5090717;28;20040;-46
2024/01/27 06:20:12;;;;;;;32.30;11.40;;;;;;;7.23;73.96;103564.53;5090800;28;20097;-44
2024/01/27 06:22:38;;;;;;;28.27;11.05;;;;;;;7.20;73.42;103569.47;5091723;28;20558;-48
2024/01/27 06:25:03;;;;;;;31.70;11.63;;;;;;;7.18;73.67;103573.69;5091368;28;20399;-45
2024/01/27 06:27:29;;;;;;;27.33;11.27;;;;;;;7.08;74.16;103572.13;5090630;28;20032;-44
2024/01/27 06:29:54;;;;;;;30.10;12.13;;;;;;;7.17;74.02;103577.06;5090148;28;20494;-53
2024/01/27 06:32:19;;;;;;;27.63;12.02;;;;;;;7.22;74.33;103586.97;5090609;28;20028;-45
2024/01/27 06:34:44;;;;;;;30.83;11.95;;;;;;;7.26;73.98;103590.66;5091153;28;20066;-46
2024/01/27 06:37:10;;;;;;;31.15;11.75;;;;;;;7.22;73.45;103596.44;5089872;28;20156;-46
2024/01/27 06:39:35;;;;;;;37.35;12.68;;;;;;;7.09;74.36;103597.25;5090869;28;20039;-46
2024/01/27 06:42:00;;;;;;;28.40;12.32;;;;;;;7.07;74.17;103610.94;5090518;28;20093;-44
2024/01/27 06:44:26;;;;;;;34.05;13.00;;;;;;;7.15;73.74;103608.06;5091294;28;20086;-45
2024/01/27 06:46:51;;;;;;;40.92;12.50;;;;;;;7.17;74.07;103606.50;5090432;28;20055;-44
2024/01/27 06:49:16;;;;;;;30.77;12.95;;;;;;;7.14;73.73;103605.38;5089873;28;20039;-45
2024/01/27 06:51:43;;;;;;;35.33;13.10;;;;;;;7.12;73.49;103601.78;5090568;28;20043;-45
2024/01/27 06:54:08;;;;;;;35.67;12.73;;;;;;;7.07;74.03;103598.88;5090029;28;20414;-46
2024/01/27 06:56:34;;;;;;;35.65;13.35;;;;;;;7.08;73.67;103592.88;5090244;28;20031;-46
2024/01/27 06:58:59;;;;;;;30.95;12.45;;;;;;;7.10;74.07;103601.66;5089948;28;20040;-45
2024/01/27 07:01:24;;;;;;;32.13;13.50;;;;;;;7.11;74.16;103608.66;5090924;28;20107;-45
2024/01/27 07:03:50;;;;;;;37.08;13.40;;;;;;;7.12;74.48;103601.78;5090951;28;20089;-49
2024/01/27 07:06:15;;;;;;;31.15;13.52;;;;;;;7.15;74.13;103604.56;5089228;28;20070;-47
2024/01/27 07:08:40;;;;;;;35.28;13.85;;;;;;;7.03;74.13;103607.22;5093068;28;20044;-45
2024/01/27 07:11:06;;;;;;;36.75;14.10;;;;;;;6.95;74.96;103608.38;5091975;28;20079;-45
2024/01/27 07:13:32;;;;;;;31.42;13.93;;;;;;;7.01;74.72;103600.13;5093472;28;20028;-45
2024/01/27 07:15:58;;;;;;;31.25;15.02;;;;;;;7.16;74.54;103603.78;5090156;28;20040;-46
2024/01/27 07:18:26;;;;;;;38.70;14.65;;;;;;;7.10;74.92;103593.88;5090486;28;20089;-45
2024/01/27 07:20:51;;;;;;;32.78;14.23;;;;;;;7.11;74.84;103607.75;5090368;28;20032;-45
2024/01/27 07:23:17;;;;;;;38.75;14.73;;;;;;;7.16;74.89;103606.38;5090995;28;20081;-48
2024/01/27 07:25:43;;;;;;;34.97;15.55;;;;;;;7.23;74.60;103606.94;5091027;28;20036;-45
2024/01/27 07:28:09;;;;;;;27.88;14.18;;;;;;;7.16;74.40;103607.28;5090314;28;20190;-45
2024/01/27 07:30:34;;;;;;;39.63;15.00;;;;;;;7.20;73.94;103611.91;5091228;28;20395;-44
2024/01/27 07:32:59;;;;;;;43.97;15.05;;;;;;;7.20;74.51;103614.47;5091297;28;20050;-44
2024/01/27 07:35:24;;;;;;;38.08;15.68;;;;;;;7.17;74.20;103609.09;5092009;28;20551;-48
2024/01/27 07:37:50;;;;;;;31.95;15.25;;;;;;;7.19;74.01;103611.81;5091552;28;20048;-44
2024/01/27 07:40:15;;;;;;;33.72;15.52;;;;;;;7.17;74.10;103610.78;5089503;28;20028;-45
2024/01/27 07:42:41;;;;;;;37.53;15.85;;;;;;;7.18;73.80;103599.63;5090127;28;20131;-45
2024/01/27 07:45:08;;;;;;;34.05;15.68;;;;;;;7.19;73.81;103598.84;5089208;28;20040;-45
2024/01/27 07:47:34;;;;;;;38.47;16.48;;;;;;;7.16;74.08;103601.19;5089305;28;20490;-45
2024/01/27 07:49:59;;;;;;;37.95;17.25;;;;;;;7.12;74.18;103602.69;5089340;28;20078;-50
2024/01/27 07:52:24;;;;;;;38.67;17.25;;;;;;;7.13;74.01;103603.59;5088843;28;20119;-45
2024/01/27 07:54:50;;;;;;;39.03;16.98;;;;;;;7.12;74.32;103599.19;5092566;28;20486;-47
2024/01/27 07:57:15;;;;;;;39.35;17.63;;;;;;;7.19;74.09;103598.84;5093712;28;20047;-45
2024/01/27 07:59:40;;;;;;;40.45;18.25;;;;;;;7.13;74.12;103596.72;5094260;28;20032;-44
2024/01/27 08:02:06;;;;;;;41.10;18.60;;;;;;;7.20;74.37;103593.72;5093800;28;20503;-45
2024/01/27 08:04:31;;;;;;;43.97;19.45;;;;;;;7.16;74.13;103599.50;5096043;28;20088;-46
2024/01/27 08:06:56;;;;;;;46.72;19.27;;;;;;;7.24;74.47;103602.66;5094730;28;20063;-45
2024/01/27 08:09:22;;;;;;;37.83;19.13;;;;;;;7.22;74.24;103607.72;5094436;28;20040;-44
2024/01/27 08:11:51;;;;;;;40.75;19.10;;;;;;;7.34;74.55;103610.28;5093773;28;20077;-46
2024/01/27 08:14:16;;;;;;;38.88;18.30;;;;;;;7.48;74.33;103612.16;5093301;28;20055;-48
2024/01/27 08:16:43;;;;;;;44.33;19.67;;;;;;;7.46;74.02;103615.41;5093024;28;20434;-45
2024/01/27 08:19:08;;;;;;;42.75;19.98;;;;;;;7.63;74.46;103620.06;5092936;28;20181;-45
2024/01/27 08:21:33;;;;;;;39.78;19.27;;;;;;;7.61;74.76;103619.09;5093419;28;20069;-45
2024/01/27 08:23:59;;;;;;;44.95;19.50;;;;;;;7.47;74.96;103606.84;5093394;28;20032;-49
2024/01/27 08:26:24;;;;;;;42.60;20.08;;;;;;;7.67;74.82;103616.91;5093399;28;20486;-45
2024/01/27 08:28:49;;;;;;;39.58;20.35;;;;;;;7.75;74.49;103621.81;5094012;28;20494;-46
2024/01/27 08:31:15;;;;;;;40.88;20.08;;;;;;;7.81;74.09;103628.25;5091858;28;20036;-46
2024/01/27 08:33:40;;;;;;;42.80;19.83;;;;;;;7.90;73.89;103634.97;5093415;28;20099;-46
2024/01/27 08:36:06;;;;;;;37.50;19.25;;;;;;;8.01;74.14;103635.69;5092360;28;20036;-46
2024/01/27 08:38:32;;;;;;;37.80;20.33;;;;;;;8.04;73.83;103634.22;5093121;28;20496;-45
2024/01/27 08:40:57;;;;;;;36.85;19.77;;;;;;;8.08;73.97;103633.59;5092921;28;20131;-47
2024/01/27 08:43:22;;;;;;;43.60;21.08;;;;;;;8.22;73.81;103626.75;5094086;28;20024;-45
2024/01/27 08:45:48;;;;;;;40.13;20.60;;;;;;;8.18;73.95;103636.81;5093288;28;20082;-50
2024/01/27 08:48:13;;;;;;;39.78;20.25;;;;;;;8.13;73.90;103634.81;5091431;28;20056;-44
2024/01/27 08:50:39;;;;;;;40.97;20.42;;;;;;;8.31;73.60;103640.38;5093301;28;20040;-48
2024/01/27 08:53:04;;;;;;;37.92;19.70;;;;;;;8.40;73.49;103642.69;5093348;28;20036;-48
2024/01/27 08:55:29;;;;;;;45.63;21.05;;;;;;;8.26;72.87;103639.13;5095318;28;20028;-47
2024/01/27 08:57:58;;;;;;;49.33;20.60;;;;;;;8.36;73.27;103638.97;5094841;28;20032;-45
2024/01/27 09:00:24;;;;;;;45.30;20.35;;;;;;;8.38;72.33;103621.78;5093494;28;20035;-44
2024/01/27 09:02:49;;;;;;;45.22;20.50;;;;;;;8.58;72.82;103620.50;5093175;28;20040;-48
2024/01/27 09:05:15;;;;;;;40.17;19.50;;;;;;;8.54;72.11;103621.97;5089785;28;20036;-46
2024/01/27 09:07:40;;;;;;;45.63;20.08;;;;;;;8.64;72.45;103627.78;5092315;28;20032;-44
2024/01/27 09:10:06;;;;;;;41.65;19.27;;;;;;;8.70;71.90;103633.38;5091952;28;20494;-45
2024/01/27 09:12:32;;;;;;;46.05;19.33;;;;;;;8.75;71.63;103645.00;5092660;28;20077;-46
2024/01/27 09:14:58;;;;;;;39.22;18.90;;;;;;;8.77;71.70;103644.28;5092659;28;20429;-44
2024/01/27 09:17:23;;;;;;;41.80;19.40;;;;;;;8.66;71.55;103645.28;5092314;28;20036;-49
2024/01/27 09:19:49;;;;;;;38.40;18.20;;;;;;;8.63;72.24;103646.78;5092632;28;20119;-46
2024/01/27 09:22:14;;;;;;;32.67;17.65;;;;;;;8.53;71.64;103640.09;5092305;28;20043;-45
2024/01/27 09:24:40;;;;;;;34.28;18.20;;;;;;;8.86;70.84;103642.28;5092976;28;20109;-46
2024/01/27 09:27:05;;;;;;;39.58;17.33;;;;;;;8.96;70.57;103644.66;5092049;28;20036;-49
2024/01/27 09:29:30;;;;;;;37.95;16.80;;;;;;;8.94;70.71;103643.66;5093669;28;20043;-47
2024/01/27 09:31:56;;;;;;;33.42;15.32;;;;;;;9.09;70.79;103643.72;5093254;28;20536;-48
2024/01/27 09:34:21;;;;;;;39.58;15.93;;;;;;;9.03;70.98;103653.75;5092924;28;20028;-45
2024/01/27 09:36:46;;;;;;;39.10;15.85;;;;;;;9.09;70.39;103648.94;5092882;28;20032;-46
2024/01/27 09:39:12;;;;;;;35.50;15.55;;;;;;;9.14;70.27;103650.16;5091309;28;20044;-48
2024/01/27 09:41:38;;;;;;;35.92;14.57;;;;;;;9.37;69.87;103651.59;5093283;28;20686;-46
2024/01/27 09:44:04;;;;;;;34.28;15.02;;;;;;;9.46;69.27;103659.06;5091890;28;20122;-47
2024/01/27 09:46:31;;;;;;;34.03;14.82;;;;;;;9.49;68.93;103667.97;5091799;28;20078;-46
2024/01/27 09:48:57;;;;;;;34.67;13.48;;;;;;;9.56;69.27;103662.34;5092086;28;20123;-50
2024/01/27 09:51:22;;;;;;;30.65;14.27;;;;;;;9.42;69.25;103671.00;5090260;28;20119;-45
2024/01/27 09:53:51;;;;;;;30.40;14.63;;;;;;;9.39;70.08;103670.81;5091860;28;20070;-46
2024/01/27 09:56:18;;;;;;;31.25;13.57;;;;;;;9.51;69.17;103671.59;5090761;28;20040;-46
2024/01/27 09:58:45;;;;;;;34.03;13.45;;;;;;;9.52;69.13;103677.66;5091934;28;20488;-44
2024/01/27 10:01:11;;;;;;;27.15;13.30;;;;;;;9.43;69.44;103671.91;5091421;28;20127;-44
2024/01/27 10:03:39;;;;;;;30.67;13.43;;;;;;;9.54;69.23;103684.78;5092382;28;20032;-46
2024/01/27 10:06:08;;;;;;;34.25;12.80;;;;;;;9.74;69.26;103688.63;5091831;28;20036;-47
2024/01/27 10:08:34;;;;;;;35.35;13.18;;;;;;;9.72;69.04;103691.13;5093748;28;20491;-45
2024/01/27 10:11:03;;;;;;;29.83;12.98;;;;;;;9.66;68.98;103690.75;5094492;28;20055;-50
2024/01/27 10:13:29;;;;;;;30.83;12.63;;;;;;;9.71;68.99;103681.50;5092992;28;20032;-45
2024/01/27 10:16:12;;;;;;;28.10;12.82;;;;;;;9.87;68.94;103685.06;5092422;28;20039;-45
2024/01/27 10:18:37;;;;;;;25.08;12.50;;;;;;;10.00;68.54;103690.22;5091654;28;20051;-44
2024/01/27 10:21:16;;;;;;;29.02;12.57;;;;;;;10.01;68.67;103685.06;5091774;28;20032;-46
2024/01/27 10:23:41;;;;;;;27.67;12.48;;;;;;;10.15;68.36;103680.69;5092337;28;20509;-50
2024/01/27 10:26:11;;;;;;;26.00;11.98;;;;;;;10.26;68.30;103683.97;5091960;28;20051;-45
2024/01/27 10:28:36;;;;;;;31.70;11.98;;;;;;;10.25;67.96;103684.75;5092516;28;20024;-48
2024/01/27 10:31:11;;;;;;;27.50;11.93;;;;;;;9.95;67.66;103679.50;5091037;28;20704;-45
2024/01/27 10:33:37;;;;;;;29.85;11.43;;;;;;;10.17;68.06;103673.91;5091124;28;20039;-49
2024/01/27 10:36:03;;;;;;;25.55;11.25;;;;;;;10.10;67.16;103674.31;5089582;28;20028;-47
2024/01/27 10:38:38;;;;;;;27.30;10.30;;;;;;;10.33;66.75;103676.59;5091518;28;20032;-45
2024/01/27 10:41:08;;;;;;;27.13;10.35;;;;;;;10.23;67.28;103678.59;5089912;28;20028;-44
2024/01/27 10:43:35;;;;;;;29.33;10.75;;;;;;;10.06;66.64;103686.25;5091648;28;20032;-47
2024/01/27 10:46:05;;;;;;;28.65;10.10;;;;;;;10.12;67.18;103690.94;5090187;28;20031;-48
2024/01/27 10:48:31;;;;;;;25.80;9.95;;;;;;;10.32;66.83;103687.84;5090488;28;20489;-44
2024/01/27 10:51:00;;;;;;;25.67;9.07;;;;;;;10.55;66.16;103684.84;5090295;28;20052;-44
2024/01/27 10:53:30;;;;;;;23.75;9.77;;;;;;;10.69;65.19;103679.53;5090793;28;20449;-48
2024/01/27 10:55:58;;;;;;;22.05;8.50;;;;;;;10.90;65.00;103691.22;5090154;28;20082;-48
2024/01/27 10:58:28;;;;;;;20.25;8.57;;;;;;;10.65;64.31;103683.69;5090293;28;20517;-49
2024/01/27 11:00:55;;;;;;;19.40;8.30;;;;;;;10.54;63.97;103672.66;5090366;28;20032;-49
2024/01/27 11:03:22;;;;;;;29.13;8.15;;;;;;;10.78;63.82;103680.09;5090926;28;20039;-44
2024/01/27 11:05:49;;;;;;;23.38;7.85;;;;;;;10.67;63.71;103675.97;5092167;28;20044;-50
2024/01/27 11:08:16;;;;;;;23.98;7.85;;;;;;;10.86;63.20;103676.19;5092628;28;20024;-46
2024/01/27 11:10:41;;;;;;;22.50;8.18;;;;;;;10.71;63.13;103668.41;5091052;28;20044;-46
2024/01/27 11:13:08;;;;;;;24.10;7.93;;;;;;;10.98;62.72;103663.81;5091141;28;20515;-49